createdAt,value
2022-09-09T00:00:22.790Z,16.20
2022-09-09T00:03:34.089Z,16.20
2022-09-09T00:06:52.823Z,16.30
2022-09-09T00:10:10.975Z,16.20
2022-09-09T00:13:24.957Z,16.20
2022-09-09T00:16:36.237Z,16.30
2022-09-09T00:19:52.217Z,15.80
2022-09-09T00:23:08.147Z,16.20
2022-09-09T00:26:21.046Z,16.20
2022-09-09T00:29:33.958Z,16.20
2022-09-09T00:32:37.683Z,16.20
2022-09-09T00:35:46.057Z,16.40
2022-09-09T00:38:57.384Z,17.30
2022-09-09T00:42:16.362Z,16.00
2022-09-09T00:46:00.183Z,16.00
2022-09-09T00:49:16.929Z,16.00
2022-09-09T00:52:36.092Z,16.00
2022-09-09T00:55:49.872Z,17.80
2022-09-09T00:59:05.959Z,14.10
2022-09-09T01:02:25.728Z,15.90
2022-09-09T01:05:37.980Z,15.90
2022-09-09T01:09:15.256Z,15.90
2022-09-09T01:12:27.909Z,15.90
2022-09-09T01:15:34.831Z,15.40
2022-09-09T01:18:46.176Z,15.90
2022-09-09T01:22:03.748Z,15.90
2022-09-09T01:25:31.844Z,15.90
2022-09-09T01:28:38.179Z,15.90
2022-09-09T01:31:53.712Z,16.90
2022-09-09T01:34:56.943Z,15.80
2022-09-09T01:38:00.554Z,16.00
2022-09-09T01:41:04.192Z,15.70
2022-09-09T01:44:10.812Z,16.40
2022-09-09T01:47:14.152Z,16.20
2022-09-09T01:50:19.151Z,16.30
2022-09-09T01:53:24.293Z,16.30
2022-09-09T01:56:42.762Z,16.40
2022-09-09T02:00:07.288Z,16.30
2022-09-09T02:03:24.059Z,16.40
2022-09-09T02:06:35.827Z,18.70
2022-09-09T02:09:41.959Z,16.00
2022-09-09T02:12:51.254Z,16.40
2022-09-09T02:16:02.648Z,16.40
2022-09-09T02:19:14.214Z,16.30
2022-09-09T02:22:21.715Z,16.30
2022-09-09T02:25:30.773Z,16.30
2022-09-09T02:28:37.501Z,16.30
2022-09-09T02:31:47.690Z,15.70
2022-09-09T02:34:58.235Z,16.30
2022-09-09T02:38:05.947Z,16.30
2022-09-09T02:41:09.347Z,16.40
2022-09-09T02:44:14.999Z,16.40
2022-09-09T02:47:37.299Z,16.40
2022-09-09T02:50:54.698Z,16.50
2022-09-09T02:54:11.132Z,16.50
2022-09-09T02:57:21.752Z,16.60
2022-09-09T03:00:26.940Z,16.70
2022-09-09T03:03:31.690Z,16.70
2022-09-09T03:06:36.638Z,17.50
2022-09-09T03:09:39.790Z,16.90
2022-09-09T03:12:43.281Z,16.90
2022-09-09T03:15:46.439Z,17.00
2022-09-09T03:18:52.006Z,17.00
2022-09-09T03:21:55.892Z,17.00
2022-09-09T03:24:59.103Z,19.70
2022-09-09T03:28:03.574Z,17.10
2022-09-09T03:31:12.347Z,17.20
2022-09-09T03:34:17.095Z,17.20
2022-09-09T03:37:23.590Z,17.20
2022-09-09T03:40:27.171Z,17.30
2022-09-09T03:43:31.287Z,17.30
2022-09-09T03:46:34.787Z,17.30
2022-09-09T03:49:39.342Z,17.40
2022-09-09T03:52:44.749Z,17.40
2022-09-09T03:55:49.531Z,17.40
2022-09-09T03:58:52.871Z,17.40
2022-09-09T04:01:58.219Z,17.50
2022-09-09T04:05:03.179Z,17.50
2022-09-09T04:08:06.365Z,17.40
2022-09-09T04:11:10.656Z,17.40
2022-09-09T04:14:13.894Z,19.70
2022-09-09T04:17:17.105Z,17.40
2022-09-09T04:20:23.059Z,17.40
2022-09-09T04:23:28.307Z,19.20
2022-09-09T04:26:31.467Z,17.40
2022-09-09T04:29:34.756Z,17.40
2022-09-09T04:32:38.193Z,17.40
2022-09-09T04:35:47.928Z,17.50
2022-09-09T04:38:51.231Z,17.70
2022-09-09T04:41:54.590Z,17.50
2022-09-09T04:44:57.900Z,17.60
2022-09-09T04:48:01.908Z,17.70
2022-09-09T04:51:08.614Z,17.70
2022-09-09T04:54:12.707Z,17.70
2022-09-09T04:57:18.748Z,17.80
2022-09-09T05:00:23.072Z,17.80
2022-09-09T05:03:26.210Z,17.00
2022-09-09T05:06:32.336Z,17.80
2022-09-09T05:09:35.431Z,17.90
2022-09-09T05:12:38.593Z,17.80
2022-09-09T05:15:44.560Z,17.90
2022-09-09T05:18:49.921Z,17.90
2022-09-09T05:21:54.675Z,17.90
2022-09-09T05:24:57.857Z,17.90
2022-09-09T05:28:01.955Z,17.50
2022-09-09T05:31:10.239Z,17.90
2022-09-09T05:34:13.757Z,17.90
2022-09-09T05:37:19.225Z,18.00
2022-09-09T05:40:23.072Z,18.60
2022-09-09T05:43:28.254Z,18.00
2022-09-09T05:46:32.588Z,17.90
2022-09-09T05:49:35.789Z,18.00
2022-09-09T05:52:40.599Z,18.00
2022-09-09T05:55:46.353Z,18.00
2022-09-09T05:58:50.686Z,18.00
2022-09-09T06:01:54.069Z,18.00
2022-09-09T06:05:00.451Z,18.00
2022-09-09T06:08:05.651Z,18.00
2022-09-09T06:11:11.629Z,18.10
2022-09-09T06:14:15.116Z,18.90
2022-09-09T06:17:18.606Z,18.10
2022-09-09T06:20:22.891Z,18.10
2022-09-09T06:23:29.089Z,18.10
2022-09-09T06:26:34.798Z,20.50
2022-09-09T06:29:38.048Z,18.10
2022-09-09T06:32:41.947Z,18.20
2022-09-09T06:35:54.069Z,18.20
2022-09-09T06:38:58.841Z,19.50
2022-09-09T06:42:06.911Z,18.30
2022-09-09T06:45:13.587Z,18.30
2022-09-09T06:48:17.235Z,18.30
2022-09-09T06:51:23.268Z,18.30
2022-09-09T06:54:27.831Z,20.80
2022-09-09T06:57:37.407Z,18.40
2022-09-09T07:00:41.169Z,18.40
2022-09-09T07:03:48.990Z,18.40
2022-09-09T07:06:53.504Z,19.70
2022-09-09T07:09:58.767Z,18.50
2022-09-09T07:13:02.557Z,18.50
2022-09-09T07:16:07.819Z,18.60
2022-09-09T07:19:12.135Z,18.70
2022-09-09T07:22:15.962Z,18.80
2022-09-09T07:25:21.880Z,18.90
2022-09-09T07:28:25.807Z,18.80
2022-09-09T07:31:32.419Z,19.20
2022-09-09T07:34:35.692Z,19.10
2022-09-09T07:37:39.454Z,19.40
2022-09-09T07:40:44.528Z,19.50
2022-09-09T07:43:49.899Z,19.60
2022-09-09T07:46:53.382Z,19.60
2022-09-09T07:49:57.277Z,20.10
2022-09-09T07:53:00.542Z,21.20
2022-09-09T07:56:11.578Z,19.70
2022-09-09T07:59:15.429Z,18.40
2022-09-09T08:02:18.898Z,19.90
2022-09-09T08:05:23.286Z,20.00
2022-09-09T08:08:26.479Z,20.00
2022-09-09T08:11:38.576Z,20.10
2022-09-09T08:14:42.448Z,20.20
2022-09-09T08:17:45.797Z,19.20
2022-09-09T08:20:48.924Z,20.20
2022-09-09T08:23:57.990Z,20.30
2022-09-09T08:27:02.832Z,19.70
2022-09-09T08:30:07.375Z,21.60
2022-09-09T08:33:12.459Z,20.40
2022-09-09T08:36:18.343Z,20.50
2022-09-09T08:39:23.849Z,20.60
2022-09-09T08:42:39.988Z,20.70
2022-09-09T08:46:01.038Z,20.80
2022-09-09T08:49:19.058Z,20.90
2022-09-09T08:52:29.256Z,21.00
2022-09-09T08:55:43.791Z,19.20
2022-09-09T08:58:51.856Z,21.10
2022-09-09T09:02:16.398Z,21.20
2022-09-09T09:05:31.083Z,21.30
2022-09-09T09:08:42.011Z,21.40
2022-09-09T09:11:51.891Z,21.00
2022-09-09T09:14:58.276Z,21.50
2022-09-09T09:18:01.789Z,21.60
2022-09-09T09:21:15.619Z,21.60
2022-09-09T09:24:22.810Z,21.70
2022-09-09T09:27:37.286Z,21.70
2022-09-09T09:30:48.710Z,21.80
2022-09-09T09:33:54.890Z,21.80
2022-09-09T09:37:02.712Z,21.70
2022-09-09T09:40:13.367Z,22.00
2022-09-09T09:43:26.321Z,22.10
2022-09-09T09:46:31.273Z,22.20
2022-09-09T09:49:34.720Z,22.30
2022-09-09T09:52:38.294Z,22.50
2022-09-09T09:55:55.607Z,22.60
2022-09-09T09:58:59.659Z,22.80
2022-09-09T10:02:24.195Z,22.80
2022-09-09T10:05:35.013Z,22.50
2022-09-09T10:08:48.372Z,22.30
2022-09-09T10:12:07.639Z,23.10
2022-09-09T10:15:32.720Z,23.10
2022-09-09T10:18:55.848Z,23.20
2022-09-09T10:22:28.106Z,23.30
2022-09-09T10:25:57.546Z,23.20
2022-09-09T10:29:29.617Z,23.10
2022-09-09T10:32:42.928Z,23.10
2022-09-09T10:35:59.592Z,23.10
2022-09-09T10:39:07.207Z,23.10
2022-09-09T10:42:16.828Z,23.10
2022-09-09T10:45:25.335Z,23.10
2022-09-09T10:48:43.496Z,23.10
2022-09-09T10:52:03.923Z,23.20
2022-09-09T10:55:16.683Z,23.20
2022-09-09T10:58:27.514Z,23.10
2022-09-09T11:01:45.671Z,23.10
2022-09-09T11:04:57.036Z,23.00
2022-09-09T11:08:09.458Z,23.10
2022-09-09T11:11:20.653Z,23.00
2022-09-09T11:14:35.478Z,21.30
2022-09-09T11:17:50.238Z,23.10
2022-09-09T11:21:00.877Z,23.20
2022-09-09T11:24:13.743Z,23.30
2022-09-09T11:27:25.897Z,23.20
2022-09-09T11:30:56.075Z,23.30
2022-09-09T11:34:26.121Z,23.30
2022-09-09T11:38:00.124Z,23.30
2022-09-09T11:41:21.063Z,23.10
2022-09-09T11:44:32.177Z,23.10
2022-09-09T11:47:35.497Z,24.90
2022-09-09T11:50:56.435Z,22.90
2022-09-09T11:54:03.598Z,22.90
2022-09-09T11:57:29.798Z,24.20
2022-09-09T12:00:39.034Z,22.80
2022-09-09T12:03:49.502Z,22.90
2022-09-09T12:06:56.680Z,22.90
2022-09-09T12:10:05.385Z,23.00
2022-09-09T12:13:23.011Z,23.10
2022-09-09T12:16:35.931Z,22.20
2022-09-09T12:19:39.073Z,23.20
2022-09-09T12:23:03.489Z,23.30
2022-09-09T12:26:25.188Z,23.10
2022-09-09T12:29:45.284Z,23.30
2022-09-09T12:32:48.967Z,23.00
2022-09-09T12:36:00.802Z,22.90
2022-09-09T12:39:25.306Z,22.80
2022-09-09T12:42:41.046Z,22.80
2022-09-09T12:45:55.121Z,22.70
2022-09-09T12:48:59.765Z,22.70
2022-09-09T12:52:11.521Z,22.60
2022-09-09T12:55:22.643Z,22.50
2022-09-09T12:58:27.184Z,22.40
2022-09-09T13:01:35.376Z,22.30
2022-09-09T13:04:38.635Z,22.30
2022-09-09T13:07:41.862Z,22.30
2022-09-09T13:10:53.192Z,22.30
2022-09-09T13:14:00.423Z,22.30
2022-09-09T13:17:08.832Z,22.20
2022-09-09T13:20:19.925Z,22.10
2022-09-09T13:23:24.277Z,22.10
2022-09-09T13:26:29.684Z,22.00
2022-09-09T13:29:34.604Z,22.30
2022-09-09T13:32:39.332Z,19.90
2022-09-09T13:35:51.486Z,22.10
2022-09-09T13:39:01.577Z,21.90
2022-09-09T13:42:08.280Z,21.80
2022-09-09T13:45:24.364Z,21.70
2022-09-09T13:48:30.984Z,21.70
2022-09-09T13:51:39.975Z,22.10
2022-09-09T13:54:44.281Z,21.60
2022-09-09T13:57:55.472Z,21.60
2022-09-09T14:00:59.802Z,21.50
2022-09-09T14:04:04.823Z,21.50
2022-09-09T14:07:08.042Z,21.40
2022-09-09T14:10:12.778Z,21.50
2022-09-09T14:13:16.654Z,21.50
2022-09-09T14:16:21.385Z,21.40
2022-09-09T14:19:26.038Z,20.00
2022-09-09T14:22:29.453Z,21.50
2022-09-09T14:25:34.395Z,21.40
2022-09-09T14:28:54.199Z,20.00
2022-09-09T14:31:57.913Z,21.40
2022-09-09T14:35:02.617Z,21.40
2022-09-09T14:38:06.730Z,21.40
2022-09-09T14:41:12.714Z,21.40
2022-09-09T14:44:16.999Z,21.20
2022-09-09T14:47:22.149Z,21.20
2022-09-09T14:50:26.961Z,23.00
2022-09-09T14:53:30.550Z,21.80
2022-09-09T14:56:36.476Z,21.10
2022-09-09T14:59:39.858Z,21.00
2022-09-09T15:02:43.613Z,21.00
2022-09-09T15:05:48.717Z,21.00
2022-09-09T15:08:54.728Z,23.40
2022-09-09T15:11:58.018Z,21.10
2022-09-09T15:15:01.519Z,21.10
2022-09-09T15:18:06.287Z,21.20
2022-09-09T15:21:11.778Z,21.10
2022-09-09T15:24:15.936Z,21.10
2022-09-09T15:27:22.067Z,21.10
2022-09-09T15:30:25.728Z,22.40
2022-09-09T15:33:30.014Z,22.20
2022-09-09T15:36:36.884Z,21.10
2022-09-09T15:39:40.595Z,19.90
2022-09-09T15:42:44.023Z,21.10
2022-09-09T15:45:54.761Z,19.70
2022-09-09T15:49:00.802Z,21.10
2022-09-09T15:52:05.694Z,21.10
2022-09-09T15:55:10.340Z,21.10
2022-09-09T15:58:13.636Z,21.10
2022-09-09T16:01:18.029Z,21.70
2022-09-09T16:04:24.659Z,21.10
2022-09-09T16:07:29.531Z,21.10
2022-09-09T16:10:33.116Z,21.10
2022-09-09T16:13:39.332Z,20.50
2022-09-09T16:16:42.969Z,22.30
2022-09-09T16:19:46.782Z,21.00
2022-09-09T16:22:52.338Z,21.00
2022-09-09T16:25:56.789Z,21.00
2022-09-09T16:29:03.387Z,21.00
2022-09-09T16:32:07.360Z,21.00
2022-09-09T16:35:10.798Z,21.00
2022-09-09T16:38:17.441Z,22.20
2022-09-09T16:41:20.956Z,21.00
2022-09-09T16:44:24.408Z,21.00
2022-09-09T16:47:27.850Z,21.00
2022-09-09T16:50:33.525Z,20.90
2022-09-09T16:53:38.171Z,20.90
2022-09-09T16:56:44.682Z,20.90
2022-09-09T16:59:49.138Z,20.90
2022-09-09T17:02:53.878Z,20.90
2022-09-09T17:05:58.683Z,20.80
2022-09-09T17:09:07.302Z,20.80
2022-09-09T17:12:11.043Z,21.30
2022-09-09T17:15:14.402Z,20.70
2022-09-09T17:18:18.131Z,20.70
2022-09-09T17:21:25.267Z,20.70
2022-09-09T17:24:30.118Z,20.60
2022-09-09T17:27:34.269Z,20.70
2022-09-09T17:30:39.465Z,20.60
2022-09-09T17:33:47.290Z,20.60
2022-09-09T17:36:50.989Z,20.60
2022-09-09T17:39:56.889Z,20.50
2022-09-09T17:43:00.146Z,20.50
2022-09-09T17:46:15.343Z,19.70
2022-09-09T17:49:20.092Z,20.40
2022-09-09T17:52:23.812Z,20.40
2022-09-09T17:55:29.154Z,20.40
2022-09-09T17:58:32.590Z,20.30
2022-09-09T18:01:39.811Z,20.30
2022-09-09T18:04:48.130Z,20.20
2022-09-09T18:07:53.365Z,20.20
2022-09-09T18:10:58.098Z,20.10
2022-09-09T18:14:06.117Z,22.40
2022-09-09T18:17:10.973Z,20.00
2022-09-09T18:20:14.337Z,19.90
2022-09-09T18:23:17.504Z,19.90
2022-09-09T18:26:25.780Z,18.00
2022-09-09T18:29:29.990Z,19.40
2022-09-09T18:32:34.324Z,19.90
2022-09-09T18:35:52.016Z,19.80
2022-09-09T18:38:57.548Z,19.80
2022-09-09T18:42:03.079Z,19.80
2022-09-09T18:45:09.582Z,19.90
2022-09-09T18:48:12.765Z,19.90
2022-09-09T18:51:22.137Z,19.80
2022-09-09T18:54:31.317Z,17.90
2022-09-09T18:57:38.502Z,19.90
2022-09-09T19:00:41.701Z,20.90
2022-09-09T19:03:44.993Z,19.80
2022-09-09T19:06:52.524Z,19.80
2022-09-09T19:09:56.417Z,19.80
2022-09-09T19:13:01.554Z,19.80
2022-09-09T19:16:07.722Z,18.20
2022-09-09T19:19:15.480Z,19.70
2022-09-09T19:22:18.879Z,19.70
2022-09-09T19:25:23.172Z,19.70
2022-09-09T19:28:28.372Z,19.70
2022-09-09T19:31:32.074Z,19.70
2022-09-09T19:34:37.013Z,21.70
2022-09-09T19:37:40.300Z,20.10
2022-09-09T19:40:43.840Z,19.70
2022-09-09T19:43:50.302Z,21.20
2022-09-09T19:46:56.559Z,19.70
2022-09-09T19:49:59.858Z,19.60
2022-09-09T19:53:05.612Z,19.60
2022-09-09T19:56:29.908Z,19.60
2022-09-09T19:59:40.491Z,19.60
2022-09-09T20:03:15.193Z,19.60
2022-09-09T20:06:57.131Z,19.60
2022-09-09T20:10:06.175Z,18.00
2022-09-09T20:13:27.350Z,19.50
2022-09-09T20:16:34.032Z,19.00
2022-09-09T20:19:39.656Z,19.40
2022-09-09T20:22:49.958Z,19.40
2022-09-09T20:26:25.367Z,18.10
2022-09-09T20:29:53.236Z,20.30
2022-09-09T20:33:13.137Z,18.90
2022-09-09T20:36:21.087Z,19.30
2022-09-09T20:39:29.588Z,19.30
2022-09-09T20:42:33.083Z,19.30
2022-09-09T20:45:46.424Z,19.50
2022-09-09T20:48:57.571Z,19.20
2022-09-09T20:52:18.237Z,19.20
2022-09-09T20:55:32.290Z,19.20
2022-09-09T20:58:45.697Z,19.20
2022-09-09T21:01:52.328Z,19.20
2022-09-09T21:05:34.372Z,19.10
2022-09-09T21:09:04.827Z,19.20
2022-09-09T21:12:50.196Z,18.80
2022-09-09T21:16:07.579Z,19.20
2022-09-09T21:19:13.249Z,19.10
2022-09-09T21:22:32.320Z,19.10
2022-09-09T21:26:03.019Z,19.10
2022-09-09T21:29:58.971Z,20.40
2022-09-09T21:33:10.933Z,19.10
2022-09-09T21:36:29.685Z,19.10
2022-09-09T21:39:37.625Z,20.30
2022-09-09T21:43:13.120Z,19.20
2022-09-09T21:46:23.190Z,19.30
2022-09-09T21:49:28.998Z,19.30
2022-09-09T21:52:45.619Z,19.40
2022-09-09T21:55:51.220Z,19.40
2022-09-09T21:58:58.460Z,19.40
2022-09-09T22:02:01.895Z,20.60
2022-09-09T22:05:06.396Z,17.70
2022-09-09T22:08:10.949Z,19.50
2022-09-09T22:11:18.964Z,19.50
2022-09-09T22:14:22.313Z,19.50
2022-09-09T22:17:25.495Z,19.50
2022-09-09T22:20:28.860Z,19.50
2022-09-09T22:23:32.123Z,19.50
2022-09-09T22:26:38.878Z,19.50
2022-09-09T22:29:42.095Z,19.40
2022-09-09T22:32:45.408Z,19.40
2022-09-09T22:35:49.853Z,19.40
2022-09-09T22:38:53.616Z,19.80
2022-09-09T22:41:58.464Z,19.30
2022-09-09T22:45:01.693Z,19.30
2022-09-09T22:48:05.179Z,19.30
2022-09-09T22:51:12.350Z,19.90
2022-09-09T22:54:21.397Z,19.30
2022-09-09T22:57:26.435Z,19.30
2022-09-09T23:00:30.134Z,19.30
2022-09-09T23:03:34.278Z,19.30
2022-09-09T23:06:39.932Z,19.30
2022-09-09T23:09:43.199Z,19.30
2022-09-09T23:12:49.000Z,19.30
2022-09-09T23:15:55.116Z,19.30
2022-09-09T23:18:58.805Z,19.30
2022-09-09T23:22:01.891Z,19.30
2022-09-09T23:25:06.882Z,19.30
2022-09-09T23:28:11.607Z,17.60
2022-09-09T23:31:18.702Z,17.90
2022-09-09T23:34:21.959Z,18.90
2022-09-09T23:37:26.740Z,18.60
2022-09-09T23:40:30.287Z,19.40
2022-09-09T23:43:39.536Z,21.40
2022-09-09T23:46:43.127Z,19.40
2022-09-09T23:49:49.875Z,20.90
2022-09-09T23:52:53.697Z,19.50
2022-09-09T23:55:58.627Z,19.70
2022-09-09T23:59:03.257Z,19.50
